createdAt,value
2018-02-23T00:01:07.419Z,14.70
2018-02-23T00:03:10.039Z,14.10
2018-02-23T00:05:12.701Z,13.90
2018-02-23T00:07:16.203Z,18.30
2018-02-23T00:09:18.805Z,14.57
2018-02-23T00:11:21.429Z,14.57
2018-02-23T00:13:24.060Z,14.60
2018-02-23T00:15:26.675Z,15.47
2018-02-23T00:17:30.057Z,14.40
2018-02-23T00:19:32.692Z,15.03
2018-02-23T00:21:35.317Z,13.03
2018-02-23T00:23:37.957Z,14.17
2018-02-23T00:25:40.593Z,12.47
2018-02-23T00:27:43.223Z,14.17
2018-02-23T00:29:45.894Z,13.67
2018-02-23T00:31:48.514Z,13.70
2018-02-23T00:33:51.120Z,13.47
2018-02-23T00:35:53.739Z,12.13
2018-02-23T00:37:56.398Z,13.77
2018-02-23T00:39:59.006Z,13.20
2018-02-23T00:42:01.635Z,11.77
2018-02-23T00:44:04.513Z,10.47
2018-02-23T00:46:07.138Z,11.40
2018-02-23T00:48:09.744Z,12.20
2018-02-23T00:50:12.347Z,11.13
2018-02-23T00:52:15.038Z,10.67
2018-02-23T00:54:18.414Z,10.63
2018-02-23T00:56:21.026Z,11.40
2018-02-23T00:58:23.649Z,11.20
2018-02-23T01:00:26.252Z,10.23
2018-02-23T01:02:28.865Z,10.00
2018-02-23T01:04:31.467Z,10.03
2018-02-23T01:06:34.109Z,10.13
2018-02-23T01:08:36.737Z,9.53
2018-02-23T01:10:39.356Z,10.57
2018-02-23T01:12:41.980Z,10.37
2018-02-23T01:14:44.590Z,8.97
2018-02-23T01:16:47.953Z,9.57
2018-02-23T01:18:50.569Z,9.57
2018-02-23T01:20:53.210Z,9.67
2018-02-23T01:22:56.599Z,8.13
2018-02-23T01:24:59.230Z,9.63
2018-02-23T01:27:02.602Z,9.43
2018-02-23T01:29:05.205Z,8.77
2018-02-23T01:31:07.823Z,8.90
2018-02-23T01:33:11.224Z,10.70
2018-02-23T01:35:13.827Z,9.07
2018-02-23T01:37:17.247Z,8.77
2018-02-23T01:39:19.866Z,10.30
2018-02-23T01:41:22.455Z,8.40
2018-02-23T01:43:25.081Z,9.37
2018-02-23T01:45:27.675Z,9.43
2018-02-23T01:47:30.307Z,10.10
2018-02-23T01:49:32.916Z,9.77
2018-02-23T01:51:35.522Z,10.13
2018-02-23T01:53:39.139Z,9.80
2018-02-23T01:55:41.749Z,9.27
2018-02-23T01:57:44.363Z,9.53
2018-02-23T01:59:47.761Z,10.37
2018-02-23T02:01:51.141Z,9.63
2018-02-23T02:03:54.535Z,9.73
2018-02-23T02:05:57.158Z,8.87
2018-02-23T02:07:59.781Z,9.03
2018-02-23T02:10:02.406Z,10.17
2018-02-23T02:12:04.996Z,10.37
2018-02-23T02:14:07.606Z,11.57
2018-02-23T02:16:11.041Z,10.63
2018-02-23T02:18:13.690Z,9.83
2018-02-23T02:20:17.068Z,9.77
2018-02-23T02:22:19.684Z,9.83
2018-02-23T02:24:22.386Z,10.30
2018-02-23T02:26:25.780Z,10.87
2018-02-23T02:28:28.463Z,10.07
2018-02-23T02:30:31.070Z,10.40
2018-02-23T02:32:34.427Z,11.37
2018-02-23T02:34:37.075Z,9.80
2018-02-23T02:36:39.677Z,10.17
2018-02-23T02:38:42.353Z,11.13
2018-02-23T02:40:44.987Z,11.10
2018-02-23T02:42:47.638Z,11.23
2018-02-23T02:44:51.016Z,11.47
2018-02-23T02:46:53.622Z,11.10
2018-02-23T02:48:56.245Z,11.53
2018-02-23T02:50:58.845Z,12.47
2018-02-23T02:53:02.228Z,11.77
2018-02-23T02:55:04.893Z,11.97
2018-02-23T02:57:07.520Z,12.23
2018-02-23T02:59:10.122Z,12.17
2018-02-23T03:01:14.159Z,12.30
2018-02-23T03:03:17.538Z,12.57
2018-02-23T03:05:20.940Z,12.90
2018-02-23T03:07:23.564Z,11.60
2018-02-23T03:09:26.187Z,12.90
2018-02-23T03:11:28.802Z,12.57
2018-02-23T03:13:31.407Z,13.13
2018-02-23T03:15:34.036Z,12.80
2018-02-23T03:17:37.413Z,12.30
2018-02-23T03:19:40.127Z,12.47
2018-02-23T03:21:43.537Z,14.57
2018-02-23T03:23:46.168Z,13.00
2018-02-23T03:25:49.576Z,13.10
2018-02-23T03:27:52.210Z,13.60
2018-02-23T03:29:54.818Z,14.03
2018-02-23T03:31:58.204Z,14.37
2018-02-23T03:34:01.602Z,13.33
2018-02-23T03:36:05.033Z,13.30
2018-02-23T03:38:07.707Z,12.60
2018-02-23T03:40:10.341Z,14.80
2018-02-23T03:42:13.763Z,13.60
2018-02-23T03:44:16.398Z,13.90
2018-02-23T03:46:18.988Z,13.07
2018-02-23T03:48:22.381Z,13.60
2018-02-23T03:50:25.763Z,12.97
2018-02-23T03:52:28.472Z,13.10
2018-02-23T03:54:31.097Z,13.03
2018-02-23T03:56:33.719Z,13.03
2018-02-23T03:58:36.352Z,14.77
2018-02-23T04:00:39.753Z,13.33
2018-02-23T04:02:42.380Z,13.83
2018-02-23T04:04:44.986Z,13.30
2018-02-23T04:06:47.595Z,14.00
2018-02-23T04:08:50.216Z,13.67
2018-02-23T04:10:52.822Z,13.87
2018-02-23T04:12:55.419Z,14.80
2018-02-23T04:14:58.871Z,13.40
2018-02-23T04:17:01.482Z,14.87
2018-02-23T04:19:04.858Z,13.83
2018-02-23T04:21:07.535Z,14.07
2018-02-23T04:23:10.145Z,13.27
2018-02-23T04:25:12.776Z,13.90
2018-02-23T04:27:15.379Z,14.17
2018-02-23T04:29:18.002Z,13.63
2018-02-23T04:31:20.613Z,14.27
2018-02-23T04:33:23.316Z,14.63
2018-02-23T04:35:26.057Z,12.50
2018-02-23T04:37:28.657Z,13.37
2018-02-23T04:39:31.259Z,14.37
2018-02-23T04:41:33.895Z,15.37
2018-02-23T04:43:36.567Z,13.63
2018-02-23T04:45:39.434Z,13.50
2018-02-23T04:47:42.084Z,12.93
2018-02-23T04:49:44.691Z,14.67
2018-02-23T04:51:47.308Z,13.73
2018-02-23T04:53:50.014Z,13.80
2018-02-23T04:55:52.758Z,13.73
2018-02-23T04:57:55.362Z,13.53
2018-02-23T04:59:57.972Z,14.63
2018-02-23T05:02:00.634Z,14.13
2018-02-23T05:04:03.239Z,13.23
2018-02-23T05:06:06.613Z,14.53
2018-02-23T05:08:09.224Z,15.10
2018-02-23T05:10:11.842Z,14.67
2018-02-23T05:12:14.509Z,14.27
2018-02-23T05:14:17.149Z,13.17
2018-02-23T05:16:19.784Z,13.83
2018-02-23T05:18:22.388Z,14.30
2018-02-23T05:20:25.782Z,14.40
2018-02-23T05:22:28.457Z,14.27
2018-02-23T05:24:31.075Z,13.10
2018-02-23T05:26:33.681Z,13.60
2018-02-23T05:28:36.311Z,15.40
2018-02-23T05:30:38.926Z,14.73
2018-02-23T05:32:41.673Z,13.93
2018-02-23T05:34:45.072Z,15.83
2018-02-23T05:36:47.809Z,14.43
2018-02-23T05:38:50.557Z,15.30
2018-02-23T05:40:53.151Z,15.40
2018-02-23T05:42:56.585Z,15.20
2018-02-23T05:44:59.229Z,14.50
2018-02-23T05:47:02.767Z,15.37
2018-02-23T05:49:05.424Z,16.00
2018-02-23T05:51:08.805Z,37.00
2018-02-23T05:53:11.542Z,21.73
2018-02-23T05:55:14.946Z,14.87
2018-02-23T05:57:18.325Z,15.27
2018-02-23T05:59:21.019Z,16.20
2018-02-23T06:01:24.413Z,17.43
2018-02-23T06:03:27.822Z,15.93
2018-02-23T06:05:30.447Z,16.00
2018-02-23T06:07:33.066Z,15.20
2018-02-23T06:09:35.764Z,16.30
2018-02-23T06:11:38.417Z,14.63
2018-02-23T06:13:41.054Z,16.20
2018-02-23T06:15:49.464Z,16.17
2018-02-23T06:17:57.677Z,15.80
2018-02-23T06:20:05.791Z,15.73
2018-02-23T06:22:09.176Z,16.00
2018-02-23T06:24:11.784Z,16.43
2018-02-23T06:26:14.446Z,16.37
2018-02-23T06:28:17.055Z,16.10
2018-02-23T06:30:19.721Z,16.23
2018-02-23T06:32:22.347Z,17.97
2018-02-23T06:34:24.950Z,14.63
2018-02-23T06:36:27.581Z,15.80
2018-02-23T06:38:30.182Z,16.77
2018-02-23T06:40:33.566Z,15.83
2018-02-23T06:42:36.150Z,16.03
2018-02-23T06:44:39.773Z,16.70
2018-02-23T06:46:43.126Z,16.10
2018-02-23T06:48:45.723Z,18.30
2018-02-23T06:50:49.180Z,17.07
2018-02-23T06:52:51.792Z,16.73
2018-02-23T06:54:55.167Z,15.90
2018-02-23T06:56:57.774Z,16.97
2018-02-23T06:59:00.413Z,16.77
2018-02-23T07:01:03.029Z,15.83
2018-02-23T07:03:05.619Z,16.07
2018-02-23T07:05:08.220Z,16.40
2018-02-23T07:07:11.031Z,17.70
2018-02-23T07:09:14.411Z,18.33
2018-02-23T07:11:17.013Z,16.43
2018-02-23T07:13:19.641Z,16.87
2018-02-23T07:15:22.230Z,17.80
2018-02-23T07:17:24.856Z,16.60
2018-02-23T07:19:27.472Z,16.67
2018-02-23T07:21:30.082Z,16.50
2018-02-23T07:23:32.705Z,18.37
2018-02-23T07:25:35.332Z,18.33
2018-02-23T07:27:37.966Z,17.53
2018-02-23T07:29:40.578Z,18.03
2018-02-23T07:31:43.179Z,17.23
2018-02-23T07:33:45.801Z,18.00
2018-02-23T07:35:48.442Z,17.23
2018-02-23T07:37:51.061Z,17.30
2018-02-23T07:39:53.669Z,18.67
2018-02-23T07:41:56.270Z,18.23
2018-02-23T07:43:58.889Z,18.90
2018-02-23T07:46:02.289Z,18.83
2018-02-23T07:48:04.897Z,18.90
2018-02-23T07:50:07.521Z,17.77
2018-02-23T07:52:10.129Z,17.67
2018-02-23T07:54:12.999Z,21.63
2018-02-23T07:56:15.630Z,18.70
2018-02-23T07:58:18.300Z,20.23
2018-02-23T08:00:20.910Z,20.07
2018-02-23T08:02:24.273Z,18.60
2018-02-23T08:04:26.926Z,18.57
2018-02-23T08:06:29.545Z,19.80
2018-02-23T08:08:32.929Z,17.47
2018-02-23T08:10:35.541Z,18.93
2018-02-23T08:12:38.140Z,18.43
2018-02-23T08:14:40.917Z,19.53
2018-02-23T08:16:44.250Z,18.40
2018-02-23T08:18:46.848Z,18.37
2018-02-23T08:20:50.314Z,19.50
2018-02-23T08:22:52.907Z,19.97
2018-02-23T08:24:56.282Z,24.33
2018-02-23T08:26:58.869Z,21.83
2018-02-23T08:29:02.249Z,19.60
2018-02-23T08:31:04.853Z,30.33
2018-02-23T08:33:07.442Z,20.10
2018-02-23T08:35:10.099Z,19.33
2018-02-23T08:37:13.474Z,19.47
2018-02-23T08:39:16.974Z,21.10
2018-02-23T08:41:20.420Z,19.63
2018-02-23T08:43:23.058Z,19.10
2018-02-23T08:45:26.459Z,19.53
2018-02-23T08:47:29.069Z,19.80
2018-02-23T08:49:32.566Z,20.17
2018-02-23T08:51:35.200Z,19.23
2018-02-23T08:53:37.834Z,19.87
2018-02-23T08:55:40.470Z,21.80
2018-02-23T08:57:43.925Z,22.07
2018-02-23T08:59:47.292Z,17.90
2018-02-23T09:01:51.397Z,19.30
2018-02-23T09:03:54.011Z,17.73
2018-02-23T09:05:57.382Z,20.80
2018-02-23T09:08:00.014Z,18.43
2018-02-23T09:10:02.646Z,19.17
2018-02-23T09:12:06.156Z,20.03
2018-02-23T09:14:08.768Z,19.70
2018-02-23T09:16:11.390Z,18.77
2018-02-23T09:18:14.770Z,19.27
2018-02-23T09:20:17.371Z,20.67
2018-02-23T09:22:20.054Z,20.43
2018-02-23T09:24:22.658Z,17.87
2018-02-23T09:26:25.261Z,18.50
2018-02-23T09:28:27.906Z,19.77
2018-02-23T09:30:30.527Z,19.47
2018-02-23T09:32:38.928Z,19.90
2018-02-23T09:34:43.373Z,21.23
2018-02-23T09:36:46.761Z,20.40
2018-02-23T09:38:50.149Z,20.53
2018-02-23T09:40:53.541Z,20.37
2018-02-23T09:42:56.910Z,20.47
2018-02-23T09:44:59.506Z,22.30
2018-02-23T09:47:02.891Z,20.03
2018-02-23T09:49:06.257Z,20.27
2018-02-23T09:51:08.873Z,19.97
2018-02-23T09:53:12.235Z,19.97
2018-02-23T09:55:14.827Z,20.00
2018-02-23T09:57:18.242Z,20.00
2018-02-23T09:59:20.853Z,21.83
2018-02-23T10:01:23.481Z,20.50
2018-02-23T10:03:26.890Z,21.03
2018-02-23T10:05:29.510Z,20.33
2018-02-23T10:07:32.215Z,20.50
2018-02-23T10:09:35.573Z,19.77
2018-02-23T10:11:38.172Z,19.00
2018-02-23T10:13:40.770Z,20.10
2018-02-23T10:15:44.132Z,21.60
2018-02-23T10:17:46.748Z,20.20
2018-02-23T10:19:49.497Z,19.67
2018-02-23T10:21:52.853Z,20.33
2018-02-23T10:23:55.690Z,19.67
2018-02-23T10:25:58.296Z,20.20
2018-02-23T10:28:00.943Z,19.57
2018-02-23T10:30:04.478Z,20.23
2018-02-23T10:32:07.126Z,21.17
2018-02-23T10:34:09.782Z,19.30
2018-02-23T10:36:12.395Z,19.70
2018-02-23T10:38:15.007Z,22.87
2018-02-23T10:40:18.385Z,21.87
2018-02-23T10:42:21.797Z,22.37
2018-02-23T10:44:25.219Z,39.20
2018-02-23T10:46:27.844Z,24.87
2018-02-23T10:48:30.467Z,21.47
2018-02-23T10:50:33.144Z,23.80
2018-02-23T10:52:35.739Z,40.10
2018-02-23T10:54:38.337Z,25.03
2018-02-23T10:56:40.958Z,24.47
2018-02-23T10:58:43.605Z,23.77
2018-02-23T11:00:46.214Z,23.80
2018-02-23T11:02:48.958Z,23.77
2018-02-23T11:04:51.547Z,21.90
2018-02-23T11:06:54.979Z,24.67
2018-02-23T11:08:57.634Z,21.57
2018-02-23T11:11:00.249Z,23.37
2018-02-23T11:13:02.852Z,22.33
2018-02-23T11:15:05.444Z,22.10
2018-02-23T11:17:08.809Z,20.40
2018-02-23T11:19:11.477Z,19.63
2018-02-23T11:21:14.092Z,21.57
2018-02-23T11:23:17.472Z,21.07
2018-02-23T11:25:20.834Z,20.17
2018-02-23T11:27:23.472Z,21.80
2018-02-23T11:29:26.059Z,21.50
2018-02-23T11:31:28.671Z,20.33
2018-02-23T11:33:31.278Z,21.60
2018-02-23T11:35:33.865Z,20.43
2018-02-23T11:37:36.524Z,21.07
2018-02-23T11:39:39.134Z,22.00
2018-02-23T11:41:41.726Z,20.60
2018-02-23T11:43:44.337Z,20.23
2018-02-23T11:45:47.708Z,20.80
2018-02-23T11:47:50.314Z,22.23
2018-02-23T11:49:52.915Z,21.77
2018-02-23T11:51:55.514Z,21.37
2018-02-23T11:53:58.880Z,22.00
2018-02-23T11:56:01.508Z,22.30
2018-02-23T11:58:07.802Z,20.50
2018-02-23T12:00:10.425Z,22.17
2018-02-23T12:02:13.029Z,22.07
2018-02-23T12:04:16.730Z,22.30
2018-02-23T12:06:20.093Z,21.00
2018-02-23T12:08:22.685Z,22.47
2018-02-23T12:10:26.075Z,21.07
2018-02-23T12:12:28.670Z,22.73
2018-02-23T12:14:32.038Z,21.73
2018-02-23T12:16:34.639Z,21.60
2018-02-23T12:18:37.241Z,22.20
2018-02-23T12:20:39.857Z,21.53
2018-02-23T12:22:42.436Z,22.47
2018-02-23T12:24:45.117Z,21.70
2018-02-23T12:26:48.490Z,20.97
2018-02-23T12:28:51.086Z,22.57
2018-02-23T12:30:53.705Z,23.10
2018-02-23T12:32:56.333Z,22.17
2018-02-23T12:34:59.701Z,22.27
2018-02-23T12:37:02.330Z,21.13
2018-02-23T12:39:04.904Z,20.83
2018-02-23T12:41:07.490Z,21.97
2018-02-23T12:43:10.090Z,21.13
2018-02-23T12:45:12.721Z,21.20
2018-02-23T12:47:15.326Z,20.83
2018-02-23T12:49:18.902Z,20.23
2018-02-23T12:51:21.499Z,21.67
2018-02-23T12:53:24.909Z,20.83
2018-02-23T12:55:27.503Z,22.00
2018-02-23T12:57:30.105Z,22.17
2018-02-23T12:59:32.981Z,21.87
2018-02-23T13:01:36.404Z,22.43
2018-02-23T13:03:39.023Z,21.57
2018-02-23T13:05:42.587Z,23.53
2018-02-23T13:07:45.173Z,23.13
2018-02-23T13:09:47.804Z,22.60
2018-02-23T13:11:50.507Z,21.20
2018-02-23T13:13:56.878Z,21.30
2018-02-23T13:15:59.469Z,22.17
2018-02-23T13:18:02.059Z,33.50
2018-02-23T13:20:04.734Z,30.97
2018-02-23T13:22:07.324Z,30.37
2018-02-23T13:24:10.717Z,33.50
2018-02-23T13:26:14.064Z,34.33
2018-02-23T13:28:22.153Z,23.00
2018-02-23T13:30:24.837Z,24.37
2018-02-23T13:32:27.579Z,20.70
2018-02-23T13:34:30.193Z,22.20
2018-02-23T13:36:32.818Z,20.90
2018-02-23T13:38:35.505Z,21.40
2018-02-23T13:40:38.090Z,19.77
2018-02-23T13:42:40.689Z,21.93
2018-02-23T13:44:43.301Z,21.93
2018-02-23T13:46:46.686Z,21.97
2018-02-23T13:48:49.306Z,21.30
2018-02-23T13:50:51.914Z,20.53
2018-02-23T13:52:54.907Z,21.40
2018-02-23T13:54:57.554Z,21.97
2018-02-23T13:57:00.138Z,22.00
2018-02-23T13:59:03.460Z,22.40
2018-02-23T14:01:06.039Z,22.50
2018-02-23T14:03:09.438Z,21.50
2018-02-23T14:05:14.404Z,23.23
2018-02-23T14:07:22.802Z,22.07
2018-02-23T14:09:25.406Z,24.63
2018-02-23T14:11:28.758Z,25.07
2018-02-23T14:13:32.140Z,21.97
2018-02-23T14:15:35.522Z,23.00
2018-02-23T14:17:38.225Z,23.50
2018-02-23T14:19:40.864Z,23.47
2018-02-23T14:21:43.466Z,23.43
2018-02-23T14:23:46.866Z,27.57
2018-02-23T14:25:49.483Z,28.77
2018-02-23T14:27:52.095Z,26.27
2018-02-23T14:29:55.510Z,24.57
2018-02-23T14:31:58.103Z,22.67
2018-02-23T14:34:00.709Z,23.27
2018-02-23T14:36:03.306Z,22.30
2018-02-23T14:38:06.653Z,23.60
2018-02-23T14:40:09.272Z,22.27
2018-02-23T14:42:11.869Z,22.13
2018-02-23T14:44:14.493Z,23.30
2018-02-23T14:46:17.096Z,23.57
2018-02-23T14:48:31.435Z,23.17
2018-02-23T14:50:45.918Z,25.30
2018-02-23T14:52:49.274Z,22.17
2018-02-23T14:54:51.888Z,23.77
2018-02-23T14:56:54.476Z,22.93
2018-02-23T14:58:57.114Z,22.87
2018-02-23T15:00:59.745Z,23.33
2018-02-23T15:03:02.345Z,23.27
2018-02-23T15:05:05.037Z,24.43
2018-02-23T15:07:07.614Z,23.83
2018-02-23T15:09:10.195Z,22.80
2018-02-23T15:11:13.570Z,23.33
2018-02-23T15:13:16.937Z,23.60
2018-02-23T15:15:19.541Z,23.10
2018-02-23T15:17:22.176Z,22.40
2018-02-23T15:19:24.771Z,23.83
2018-02-23T15:21:27.394Z,22.73
2018-02-23T15:23:30.046Z,22.90
2018-02-23T15:25:33.408Z,23.67
2018-02-23T15:27:36.029Z,23.37
2018-02-23T15:29:39.412Z,24.93
2018-02-23T15:31:54.698Z,25.07
2018-02-23T15:33:57.308Z,22.53
2018-02-23T15:36:00.210Z,24.67
2018-02-23T15:38:02.831Z,24.27
2018-02-23T15:40:05.430Z,22.90
2018-02-23T15:42:08.384Z,23.43
2018-02-23T15:44:11.014Z,23.97
2018-02-23T15:46:13.620Z,39.47
2018-02-23T15:48:31.865Z,27.47
2018-02-23T15:50:52.891Z,84.30
2018-02-23T15:52:55.503Z,27.00
2018-02-23T15:54:58.114Z,33.43
2018-02-23T15:57:01.551Z,62.93
2018-02-23T15:59:04.143Z,30.20
2018-02-23T16:01:06.837Z,24.83
2018-02-23T16:03:09.452Z,27.47
2018-02-23T16:05:12.078Z,28.57
2018-02-23T16:07:14.689Z,25.83
2018-02-23T16:09:17.373Z,25.03
2018-02-23T16:11:19.974Z,26.00
2018-02-23T16:13:22.780Z,29.00
2018-02-23T16:15:25.413Z,24.40
2018-02-23T16:17:28.193Z,25.67
2018-02-23T16:19:30.913Z,25.17
2018-02-23T16:21:33.558Z,25.63
2018-02-23T16:23:36.427Z,26.93
2018-02-23T16:25:39.363Z,26.17
2018-02-23T16:27:42.734Z,24.30
2018-02-23T16:29:45.349Z,26.50
2018-02-23T16:31:48.730Z,23.97
2018-02-23T16:33:51.343Z,26.30
2018-02-23T16:35:53.980Z,24.67
2018-02-23T16:37:56.592Z,28.07
2018-02-23T16:39:59.199Z,26.83
2018-02-23T16:42:01.831Z,25.43
2018-02-23T16:44:04.504Z,24.67
2018-02-23T16:46:07.126Z,24.93
2018-02-23T16:48:09.757Z,28.50
2018-02-23T16:50:12.370Z,27.57
2018-02-23T16:52:15.765Z,29.00
2018-02-23T16:54:19.143Z,29.43
2018-02-23T16:56:21.801Z,30.13
2018-02-23T16:58:24.426Z,30.03
2018-02-23T17:00:27.032Z,30.10
2018-02-23T17:02:30.434Z,28.00
2018-02-23T17:04:33.045Z,29.23
2018-02-23T17:06:35.670Z,26.93
2018-02-23T17:08:39.148Z,25.87
2018-02-23T17:10:41.750Z,26.60
2018-02-23T17:12:45.144Z,31.43
2018-02-23T17:14:47.745Z,41.60
2018-02-23T17:16:50.346Z,30.60
2018-02-23T17:18:52.957Z,27.10
2018-02-23T17:20:55.663Z,28.00
2018-02-23T17:22:58.280Z,27.30
2018-02-23T17:25:00.886Z,27.97
2018-02-23T17:27:03.496Z,52.20
2018-02-23T17:29:06.121Z,74.40
2018-02-23T17:31:09.491Z,43.17
2018-02-23T17:33:12.152Z,40.20
2018-02-23T17:35:14.759Z,26.53
2018-02-23T17:37:17.393Z,29.53
2018-02-23T17:39:20.027Z,31.47
2018-02-23T17:41:22.642Z,32.17
2018-02-23T17:43:25.277Z,29.97
2018-02-23T17:45:27.894Z,26.00
2018-02-23T17:47:31.360Z,27.17
2018-02-23T17:49:33.954Z,24.53
2018-02-23T17:51:36.589Z,25.90
2018-02-23T17:53:39.973Z,25.23
2018-02-23T17:55:42.565Z,26.07
2018-02-23T17:57:45.157Z,25.80
2018-02-23T17:59:47.861Z,25.57
2018-02-23T18:01:50.489Z,25.93
2018-02-23T18:03:53.079Z,26.77
2018-02-23T18:05:55.726Z,25.63
2018-02-23T18:07:59.217Z,26.03
2018-02-23T18:10:01.813Z,24.37
2018-02-23T18:12:04.576Z,26.73
2018-02-23T18:14:07.235Z,27.03
2018-02-23T18:16:10.594Z,24.90
2018-02-23T18:18:13.201Z,25.90
2018-02-23T18:20:15.825Z,25.47
2018-02-23T18:22:19.369Z,27.57
2018-02-23T18:24:22.768Z,26.83
2018-02-23T18:26:26.160Z,26.43
2018-02-23T18:28:28.778Z,27.30
2018-02-23T18:30:31.389Z,26.70
2018-02-23T18:32:33.994Z,26.13
2018-02-23T18:34:37.379Z,27.40
2018-02-23T18:36:40.816Z,26.20
2018-02-23T18:38:43.571Z,27.23
2018-02-23T18:40:46.177Z,27.37
2018-02-23T18:42:48.790Z,27.53
2018-02-23T18:44:51.401Z,25.70
2018-02-23T18:46:54.010Z,26.27
2018-02-23T18:48:56.634Z,27.33
2018-02-23T18:50:59.227Z,27.83
2018-02-23T18:53:01.854Z,26.73
2018-02-23T18:55:04.487Z,27.47
2018-02-23T18:57:07.185Z,27.27
2018-02-23T18:59:09.800Z,29.07
2018-02-23T19:01:12.411Z,27.10
2018-02-23T19:03:15.125Z,28.07
2018-02-23T19:05:17.719Z,27.80
2018-02-23T19:07:20.334Z,27.10
2018-02-23T19:09:22.936Z,26.43
2018-02-23T19:11:25.554Z,26.53
2018-02-23T19:13:28.954Z,25.70
2018-02-23T19:15:32.315Z,25.93
2018-02-23T19:17:34.933Z,26.13
2018-02-23T19:19:37.549Z,26.10
2018-02-23T19:21:40.242Z,27.00
2018-02-23T19:23:43.119Z,25.70
2018-02-23T19:25:45.823Z,26.57
2018-02-23T19:27:49.211Z,27.30
2018-02-23T19:29:52.559Z,26.83
2018-02-23T19:31:55.917Z,27.67
2018-02-23T19:33:58.582Z,26.67
2018-02-23T19:36:01.200Z,26.70
2018-02-23T19:38:03.855Z,25.63
2018-02-23T19:40:06.463Z,27.40
2018-02-23T19:42:09.098Z,27.00
2018-02-23T19:44:11.709Z,25.50
2018-02-23T19:46:14.326Z,26.90
2018-02-23T19:48:17.740Z,25.57
2018-02-23T19:50:20.367Z,26.70
2018-02-23T19:52:23.002Z,25.93
2018-02-23T19:54:25.618Z,27.03
2018-02-23T19:56:28.257Z,27.23
2018-02-23T19:58:30.903Z,27.63
2018-02-23T20:00:33.517Z,26.00
2018-02-23T20:02:36.110Z,25.80
2018-02-23T20:04:38.752Z,26.27
2018-02-23T20:06:41.376Z,27.07
2018-02-23T20:08:43.993Z,26.27
2018-02-23T20:10:46.623Z,26.97
2018-02-23T20:12:49.270Z,27.33
2018-02-23T20:14:51.906Z,32.77
2018-02-23T20:16:54.539Z,26.93
2018-02-23T20:18:57.154Z,25.30
2018-02-23T20:21:00.030Z,26.23
2018-02-23T20:23:02.701Z,25.27
2018-02-23T20:25:06.073Z,26.20
2018-02-23T20:27:08.684Z,26.77
2018-02-23T20:29:11.307Z,25.27
2018-02-23T20:31:13.916Z,25.47
2018-02-23T20:33:17.351Z,24.97
2018-02-23T20:35:20.742Z,26.27
2018-02-23T20:37:23.374Z,26.50
2018-02-23T20:39:26.754Z,26.63
2018-02-23T20:41:29.350Z,27.53
2018-02-23T20:43:31.981Z,24.17
2018-02-23T20:45:34.651Z,27.33
2018-02-23T20:47:37.251Z,25.60
2018-02-23T20:49:40.673Z,26.33
2018-02-23T20:51:43.302Z,27.67
2018-02-23T20:53:45.947Z,26.57
2018-02-23T20:55:48.571Z,27.23
2018-02-23T20:57:52.007Z,26.80
2018-02-23T20:59:54.636Z,29.13
2018-02-23T21:01:57.247Z,27.17
2018-02-23T21:03:59.869Z,27.87
2018-02-23T21:06:02.498Z,27.90
2018-02-23T21:08:05.120Z,27.03
2018-02-23T21:10:07.742Z,30.40
2018-02-23T21:12:10.362Z,28.43
2018-02-23T21:14:13.033Z,37.87
2018-02-23T21:16:15.673Z,29.47
2018-02-23T21:18:19.197Z,30.67
2018-02-23T21:20:21.899Z,26.90
2018-02-23T21:22:24.514Z,28.50
2018-02-23T21:24:27.118Z,27.40
2018-02-23T21:26:29.769Z,29.67
2018-02-23T21:28:32.425Z,30.67
2018-02-23T21:30:35.824Z,28.27
2018-02-23T21:32:39.215Z,33.07
2018-02-23T21:34:43.028Z,31.43
2018-02-23T21:36:45.645Z,30.60
2018-02-23T21:38:48.246Z,28.60
2018-02-23T21:40:50.862Z,28.57
2018-02-23T21:42:53.487Z,28.77
2018-02-23T21:44:56.126Z,29.07
2018-02-23T21:46:58.759Z,28.33
2018-02-23T21:49:02.134Z,28.67
2018-02-23T21:51:04.744Z,26.70
2018-02-23T21:53:07.402Z,28.47
2018-02-23T21:55:10.777Z,26.63
2018-02-23T21:57:13.404Z,26.87
2018-02-23T21:59:16.009Z,26.53
2018-02-23T22:01:18.635Z,27.80
2018-02-23T22:03:21.249Z,37.57
2018-02-23T22:05:23.883Z,28.13
2018-02-23T22:07:26.522Z,28.33
2018-02-23T22:09:29.148Z,26.73
2018-02-23T22:11:31.750Z,27.57
2018-02-23T22:13:34.421Z,29.33
2018-02-23T22:15:37.074Z,26.57
2018-02-23T22:17:39.812Z,27.63
2018-02-23T22:19:43.204Z,28.07
2018-02-23T22:21:45.825Z,27.23
2018-02-23T22:23:48.429Z,28.03
2018-02-23T22:25:51.054Z,29.03
2018-02-23T22:27:53.650Z,27.37
2018-02-23T22:29:56.270Z,28.07
2018-02-23T22:31:58.904Z,26.93
2018-02-23T22:34:01.700Z,28.77
2018-02-23T22:36:04.342Z,25.63
2018-02-23T22:38:06.938Z,27.80
2018-02-23T22:40:10.305Z,28.47
2018-02-23T22:42:12.996Z,27.87
2018-02-23T22:44:15.622Z,29.33
2018-02-23T22:46:18.983Z,27.50
2018-02-23T22:48:21.599Z,26.97
2018-02-23T22:50:25.043Z,30.80
2018-02-23T22:52:27.677Z,28.30
2018-02-23T22:54:30.290Z,26.73
2018-02-23T22:56:32.882Z,27.67
2018-02-23T22:58:35.495Z,29.20
2018-02-23T23:00:38.874Z,27.87
2018-02-23T23:02:42.255Z,27.87
2018-02-23T23:04:44.863Z,27.70
2018-02-23T23:06:47.469Z,29.47
2018-02-23T23:08:50.093Z,28.43
2018-02-23T23:10:53.479Z,29.13
2018-02-23T23:12:56.100Z,27.23
2018-02-23T23:14:58.734Z,28.73
2018-02-23T23:17:02.116Z,29.80
2018-02-23T23:19:04.720Z,28.57
2018-02-23T23:21:07.422Z,28.00
2018-02-23T23:23:10.026Z,27.23
2018-02-23T23:25:12.645Z,26.17
2018-02-23T23:27:15.297Z,26.00
2018-02-23T23:29:18.689Z,27.23
2018-02-23T23:31:22.075Z,26.83
2018-02-23T23:33:24.700Z,26.87
2018-02-23T23:35:27.294Z,27.20
2018-02-23T23:37:29.931Z,27.53
2018-02-23T23:39:32.532Z,27.37
2018-02-23T23:41:35.166Z,27.20
2018-02-23T23:43:38.661Z,28.37
2018-02-23T23:45:42.094Z,28.80
2018-02-23T23:47:44.768Z,28.47
2018-02-23T23:49:47.351Z,28.27
2018-02-23T23:51:49.982Z,26.87
2018-02-23T23:53:53.366Z,26.33
2018-02-23T23:55:56.754Z,27.13
2018-02-23T23:58:00.194Z,26.73
